sensor_id;sensor_type;location;lat;lon;timestamp;temperature;humidity
16485;DHT22;8353;47.856;12.344;2023-07-31T00:01:14;21.50;99.90
16485;DHT22;8353;47.856;12.344;2023-07-31T00:03:46;21.50;99.90
16485;DHT22;8353;47.856;12.344;2023-07-31T00:06:16;21.70;99.90
16485;DHT22;8353;47.856;12.344;2023-07-31T00:08:47;21.80;99.90
16485;DHT22;8353;47.856;12.344;2023-07-31T00:11:18;21.80;99.90
16485;DHT22;8353;47.856;12.344;2023-07-31T00:13:48;21.90;99.90
16485;DHT22;8353;47.856;12.344;2023-07-31T00:16:19;21.80;99.90
16485;DHT22;8353;47.856;12.344;2023-07-31T00:18:50;21.70;99.90
16485;DHT22;8353;47.856;12.344;2023-07-31T00:21:20;21.80;99.90
16485;DHT22;8353;47.856;12.344;2023-07-31T00:23:50;21.80;99.90
16485;DHT22;8353;47.856;12.344;2023-07-31T00:26:21;21.80;99.90
16485;DHT22;8353;47.856;12.344;2023-07-31T00:28:51;21.80;99.90
16485;DHT22;8353;47.856;12.344;2023-07-31T00:31:22;21.80;99.90
16485;DHT22;8353;47.856;12.344;2023-07-31T00:33:53;21.80;99.90
16485;DHT22;8353;47.856;12.344;2023-07-31T00:36:23;21.80;99.90
16485;DHT22;8353;47.856;12.344;2023-07-31T00:38:53;21.70;99.90
16485;DHT22;8353;47.856;12.344;2023-07-31T00:41:24;21.70;99.90
16485;DHT22;8353;47.856;12.344;2023-07-31T00:43:54;21.70;99.90
16485;DHT22;8353;47.856;12.344;2023-07-31T00:46:26;21.70;99.90
16485;DHT22;8353;47.856;12.344;2023-07-31T00:48:57;21.60;99.90
16485;DHT22;8353;47.856;12.344;2023-07-31T00:51:28;21.60;99.90
16485;DHT22;8353;47.856;12.344;2023-07-31T00:53:59;21.70;99.90
16485;DHT22;8353;47.856;12.344;2023-07-31T00:56:30;21.70;99.90
16485;DHT22;8353;47.856;12.344;2023-07-31T00:59:00;21.70;99.90
16485;DHT22;8353;47.856;12.344;2023-07-31T01:01:31;21.60;99.90
16485;DHT22;8353;47.856;12.344;2023-07-31T01:04:03;21.60;99.90
16485;DHT22;8353;47.856;12.344;2023-07-31T01:09:20;21.50;99.90
16485;DHT22;8353;47.856;12.344;2023-07-31T01:11:56;21.40;99.90
16485;DHT22;8353;47.856;12.344;2023-07-31T01:14:30;21.30;99.90
16485;DHT22;8353;47.856;12.344;2023-07-31T01:17:01;21.30;99.90
16485;DHT22;8353;47.856;12.344;2023-07-31T01:19:32;21.20;99.90
16485;DHT22;8353;47.856;12.344;2023-07-31T01:22:23;21.30;99.90
16485;DHT22;8353;47.856;12.344;2023-07-31T01:25:07;21.30;99.90
16485;DHT22;8353;47.856;12.344;2023-07-31T01:27:46;21.40;99.90
16485;DHT22;8353;47.856;12.344;2023-07-31T01:30:22;21.30;99.90
16485;DHT22;8353;47.856;12.344;2023-07-31T01:32:56;21.30;99.90
16485;DHT22;8353;47.856;12.344;2023-07-31T01:35:27;21.20;99.90
16485;DHT22;8353;47.856;12.344;2023-07-31T01:37:57;21.20;99.90
16485;DHT22;8353;47.856;12.344;2023-07-31T01:40:28;21.10;99.90
16485;DHT22;8353;47.856;12.344;2023-07-31T01:43:00;21.00;99.90
16485;DHT22;8353;47.856;12.344;2023-07-31T01:45:31;20.90;99.90
16485;DHT22;8353;47.856;12.344;2023-07-31T01:48:01;20.80;99.90
16485;DHT22;8353;47.856;12.344;2023-07-31T01:50:32;20.80;99.90
16485;DHT22;8353;47.856;12.344;2023-07-31T01:53:02;20.80;99.90
16485;DHT22;8353;47.856;12.344;2023-07-31T01:55:33;20.80;99.90
16485;DHT22;8353;47.856;12.344;2023-07-31T01:58:05;20.80;99.90
16485;DHT22;8353;47.856;12.344;2023-07-31T02:00:35;20.90;99.90
16485;DHT22;8353;47.856;12.344;2023-07-31T02:03:05;21.00;99.90
16485;DHT22;8353;47.856;12.344;2023-07-31T02:05:36;20.90;99.90
16485;DHT22;8353;47.856;12.344;2023-07-31T02:08:06;20.70;99.90
16485;DHT22;8353;47.856;12.344;2023-07-31T02:10:36;20.90;99.90
16485;DHT22;8353;47.856;12.344;2023-07-31T02:13:08;20.70;99.90
16485;DHT22;8353;47.856;12.344;2023-07-31T02:15:38;20.70;99.90
16485;DHT22;8353;47.856;12.344;2023-07-31T02:18:08;20.70;99.90
16485;DHT22;8353;47.856;12.344;2023-07-31T02:20:38;20.70;99.90
16485;DHT22;8353;47.856;12.344;2023-07-31T02:23:09;20.60;99.90
16485;DHT22;8353;47.856;12.344;2023-07-31T02:25:39;20.40;99.90
16485;DHT22;8353;47.856;12.344;2023-07-31T02:28:10;20.50;99.90
16485;DHT22;8353;47.856;12.344;2023-07-31T02:30:44;20.50;99.90
16485;DHT22;8353;47.856;12.344;2023-07-31T02:33:14;20.60;99.90
16485;DHT22;8353;47.856;12.344;2023-07-31T02:35:45;20.50;99.90
16485;DHT22;8353;47.856;12.344;2023-07-31T02:38:16;20.30;99.90
16485;DHT22;8353;47.856;12.344;2023-07-31T02:40:46;20.10;99.90
16485;DHT22;8353;47.856;12.344;2023-07-31T02:43:18;20.20;99.90
16485;DHT22;8353;47.856;12.344;2023-07-31T02:45:51;20.30;99.90
16485;DHT22;8353;47.856;12.344;2023-07-31T02:48:21;20.30;99.90
16485;DHT22;8353;47.856;12.344;2023-07-31T02:50:52;20.30;99.90
16485;DHT22;8353;47.856;12.344;2023-07-31T02:53:22;20.40;99.90
16485;DHT22;8353;47.856;12.344;2023-07-31T02:55:53;20.40;99.90
16485;DHT22;8353;47.856;12.344;2023-07-31T02:58:24;20.30;99.90
16485;DHT22;8353;47.856;12.344;2023-07-31T03:00:55;20.10;99.90
16485;DHT22;8353;47.856;12.344;2023-07-31T03:03:26;20.20;99.90
16485;DHT22;8353;47.856;12.344;2023-07-31T03:05:56;20.00;99.90
16485;DHT22;8353;47.856;12.344;2023-07-31T03:08:26;19.90;99.90
16485;DHT22;8353;47.856;12.344;2023-07-31T03:10:57;19.90;99.90
16485;DHT22;8353;47.856;12.344;2023-07-31T03:13:28;19.90;99.90
16485;DHT22;8353;47.856;12.344;2023-07-31T03:15:58;19.90;99.90
16485;DHT22;8353;47.856;12.344;2023-07-31T03:18:29;19.90;99.90
16485;DHT22;8353;47.856;12.344;2023-07-31T03:20:59;19.90;99.90
16485;DHT22;8353;47.856;12.344;2023-07-31T03:23:30;19.80;99.90
16485;DHT22;8353;47.856;12.344;2023-07-31T03:26:07;19.80;99.90
16485;DHT22;8353;47.856;12.344;2023-07-31T03:28:39;19.80;99.90
16485;DHT22;8353;47.856;12.344;2023-07-31T03:31:09;19.70;99.90
16485;DHT22;8353;47.856;12.344;2023-07-31T03:33:40;19.50;99.90
16485;DHT22;8353;47.856;12.344;2023-07-31T03:36:11;19.40;99.90
16485;DHT22;8353;47.856;12.344;2023-07-31T03:38:41;19.40;99.90
16485;DHT22;8353;47.856;12.344;2023-07-31T03:41:28;19.30;99.90
16485;DHT22;8353;47.856;12.344;2023-07-31T03:43:59;19.40;99.90
16485;DHT22;8353;47.856;12.344;2023-07-31T03:46:30;19.30;99.90
16485;DHT22;8353;47.856;12.344;2023-07-31T03:49:00;19.20;99.90
16485;DHT22;8353;47.856;12.344;2023-07-31T03:51:36;19.20;99.90
16485;DHT22;8353;47.856;12.344;2023-07-31T03:54:06;19.20;99.90
16485;DHT22;8353;47.856;12.344;2023-07-31T03:56:37;19.20;99.90
16485;DHT22;8353;47.856;12.344;2023-07-31T03:59:09;19.20;99.90
16485;DHT22;8353;47.856;12.344;2023-07-31T04:01:39;19.00;99.90
16485;DHT22;8353;47.856;12.344;2023-07-31T04:04:09;18.70;99.90
16485;DHT22;8353;47.856;12.344;2023-07-31T04:06:40;18.80;99.90
16485;DHT22;8353;47.856;12.344;2023-07-31T04:09:10;18.90;99.90
16485;DHT22;8353;47.856;12.344;2023-07-31T04:11:40;19.10;99.90
16485;DHT22;8353;47.856;12.344;2023-07-31T04:14:12;19.20;99.90
16485;DHT22;8353;47.856;12.344;2023-07-31T04:16:42;19.20;99.90
16485;DHT22;8353;47.856;12.344;2023-07-31T04:19:13;19.20;99.90
16485;DHT22;8353;47.856;12.344;2023-07-31T04:21:45;19.20;99.90
16485;DHT22;8353;47.856;12.344;2023-07-31T04:24:16;19.30;99.90
16485;DHT22;8353;47.856;12.344;2023-07-31T04:26:53;19.30;99.90
16485;DHT22;8353;47.856;12.344;2023-07-31T04:29:25;19.30;99.90
16485;DHT22;8353;47.856;12.344;2023-07-31T04:31:55;19.30;99.90
16485;DHT22;8353;47.856;12.344;2023-07-31T04:34:25;19.30;99.90
16485;DHT22;8353;47.856;12.344;2023-07-31T04:36:55;19.30;99.90
16485;DHT22;8353;47.856;12.344;2023-07-31T04:39:26;19.30;99.90
16485;DHT22;8353;47.856;12.344;2023-07-31T04:41:56;19.30;99.90
16485;DHT22;8353;47.856;12.344;2023-07-31T04:44:27;19.40;99.90
16485;DHT22;8353;47.856;12.344;2023-07-31T04:46:58;19.50;99.90
16485;DHT22;8353;47.856;12.344;2023-07-31T04:49:29;19.50;99.90
16485;DHT22;8353;47.856;12.344;2023-07-31T04:51:59;19.50;99.90
16485;DHT22;8353;47.856;12.344;2023-07-31T04:54:29;19.40;99.90
16485;DHT22;8353;47.856;12.344;2023-07-31T04:57:00;19.50;99.90
16485;DHT22;8353;47.856;12.344;2023-07-31T04:59:32;19.40;99.90
16485;DHT22;8353;47.856;12.344;2023-07-31T05:02:03;19.30;99.90
16485;DHT22;8353;47.856;12.344;2023-07-31T05:04:33;19.30;99.90
16485;DHT22;8353;47.856;12.344;2023-07-31T05:07:04;19.50;99.90
16485;DHT22;8353;47.856;12.344;2023-07-31T05:09:35;19.50;99.90
16485;DHT22;8353;47.856;12.344;2023-07-31T05:12:06;19.50;99.90
16485;DHT22;8353;47.856;12.344;2023-07-31T05:14:37;19.60;99.90
16485;DHT22;8353;47.856;12.344;2023-07-31T05:17:07;19.60;99.90
16485;DHT22;8353;47.856;12.344;2023-07-31T05:19:38;19.70;99.90
16485;DHT22;8353;47.856;12.344;2023-07-31T05:22:09;19.60;99.90
16485;DHT22;8353;47.856;12.344;2023-07-31T05:24:40;19.70;99.90
16485;DHT22;8353;47.856;12.344;2023-07-31T05:27:10;19.70;99.90
16485;DHT22;8353;47.856;12.344;2023-07-31T05:29:43;19.70;99.90
16485;DHT22;8353;47.856;12.344;2023-07-31T05:32:13;19.70;99.90
16485;DHT22;8353;47.856;12.344;2023-07-31T05:34:43;19.80;99.90
16485;DHT22;8353;47.856;12.344;2023-07-31T05:37:14;19.80;99.90
16485;DHT22;8353;47.856;12.344;2023-07-31T05:39:44;19.90;99.90
16485;DHT22;8353;47.856;12.344;2023-07-31T05:42:14;20.00;99.90
16485;DHT22;8353;47.856;12.344;2023-07-31T05:44:46;20.00;99.90
16485;DHT22;8353;47.856;12.344;2023-07-31T05:47:17;20.10;99.90
16485;DHT22;8353;47.856;12.344;2023-07-31T05:49:49;20.20;99.90
16485;DHT22;8353;47.856;12.344;2023-07-31T05:52:22;20.40;99.90
16485;DHT22;8353;47.856;12.344;2023-07-31T05:54:53;20.50;99.90
16485;DHT22;8353;47.856;12.344;2023-07-31T05:57:23;20.50;99.90
16485;DHT22;8353;47.856;12.344;2023-07-31T05:59:56;20.60;99.90
16485;DHT22;8353;47.856;12.344;2023-07-31T06:02:26;20.70;99.90
16485;DHT22;8353;47.856;12.344;2023-07-31T06:04:56;20.70;99.90
16485;DHT22;8353;47.856;12.344;2023-07-31T06:07:27;20.80;99.90
16485;DHT22;8353;47.856;12.344;2023-07-31T06:09:57;21.00;99.90
16485;DHT22;8353;47.856;12.344;2023-07-31T06:12:32;21.10;99.90
16485;DHT22;8353;47.856;12.344;2023-07-31T06:15:04;21.10;99.90
16485;DHT22;8353;47.856;12.344;2023-07-31T06:17:34;21.20;99.90
16485;DHT22;8353;47.856;12.344;2023-07-31T06:20:07;21.40;99.90
16485;DHT22;8353;47.856;12.344;2023-07-31T06:22:37;21.50;99.90
16485;DHT22;8353;47.856;12.344;2023-07-31T06:25:08;21.60;99.90
16485;DHT22;8353;47.856;12.344;2023-07-31T06:27:39;21.80;99.90
16485;DHT22;8353;47.856;12.344;2023-07-31T06:30:12;21.90;99.90
16485;DHT22;8353;47.856;12.344;2023-07-31T06:32:43;22.10;99.90
16485;DHT22;8353;47.856;12.344;2023-07-31T06:35:13;22.10;99.90
16485;DHT22;8353;47.856;12.344;2023-07-31T06:37:44;22.20;99.90
16485;DHT22;8353;47.856;12.344;2023-07-31T06:40:20;22.30;99.90
16485;DHT22;8353;47.856;12.344;2023-07-31T06:42:52;22.40;99.90
16485;DHT22;8353;47.856;12.344;2023-07-31T06:45:24;22.60;99.90
16485;DHT22;8353;47.856;12.344;2023-07-31T06:47:54;22.70;99.90
16485;DHT22;8353;47.856;12.344;2023-07-31T06:50:25;22.90;99.90
16485;DHT22;8353;47.856;12.344;2023-07-31T06:52:55;23.10;99.90
16485;DHT22;8353;47.856;12.344;2023-07-31T06:55:25;23.30;99.90
16485;DHT22;8353;47.856;12.344;2023-07-31T06:57:56;23.40;99.90
16485;DHT22;8353;47.856;12.344;2023-07-31T07:00:28;23.50;99.90
16485;DHT22;8353;47.856;12.344;2023-07-31T07:02:59;23.60;99.90
16485;DHT22;8353;47.856;12.344;2023-07-31T07:05:33;23.50;99.90
16485;DHT22;8353;47.856;12.344;2023-07-31T07:08:03;23.40;99.90
16485;DHT22;8353;47.856;12.344;2023-07-31T07:10:34;23.20;99.90
16485;DHT22;8353;47.856;12.344;2023-07-31T07:13:05;23.10;99.90
16485;DHT22;8353;47.856;12.344;2023-07-31T07:15:36;23.10;99.90
16485;DHT22;8353;47.856;12.344;2023-07-31T07:18:07;23.20;99.90
16485;DHT22;8353;47.856;12.344;2023-07-31T07:20:40;23.30;99.90
16485;DHT22;8353;47.856;12.344;2023-07-31T07:23:10;23.10;99.90
16485;DHT22;8353;47.856;12.344;2023-07-31T07:25:42;23.20;99.90
16485;DHT22;8353;47.856;12.344;2023-07-31T07:28:13;23.00;99.90
16485;DHT22;8353;47.856;12.344;2023-07-31T07:30:44;23.00;99.90
16485;DHT22;8353;47.856;12.344;2023-07-31T07:33:15;23.00;99.90
16485;DHT22;8353;47.856;12.344;2023-07-31T07:35:46;23.00;99.90
16485;DHT22;8353;47.856;12.344;2023-07-31T07:38:16;23.00;99.90
16485;DHT22;8353;47.856;12.344;2023-07-31T07:40:48;23.20;99.90
16485;DHT22;8353;47.856;12.344;2023-07-31T07:43:19;23.20;99.90
16485;DHT22;8353;47.856;12.344;2023-07-31T07:45:51;23.30;99.90
16485;DHT22;8353;47.856;12.344;2023-07-31T07:48:24;23.30;99.90
16485;DHT22;8353;47.856;12.344;2023-07-31T07:50:55;23.20;99.90
16485;DHT22;8353;47.856;12.344;2023-07-31T07:53:26;23.10;99.90
16485;DHT22;8353;47.856;12.344;2023-07-31T07:55:57;23.10;99.90
16485;DHT22;8353;47.856;12.344;2023-07-31T07:58:28;23.20;99.90
16485;DHT22;8353;47.856;12.344;2023-07-31T08:01:02;23.40;99.90
16485;DHT22;8353;47.856;12.344;2023-07-31T08:03:34;23.60;99.90
16485;DHT22;8353;47.856;12.344;2023-07-31T08:06:05;23.60;99.90
16485;DHT22;8353;47.856;12.344;2023-07-31T08:08:39;23.60;99.90
16485;DHT22;8353;47.856;12.344;2023-07-31T08:11:10;23.60;99.90
16485;DHT22;8353;47.856;12.344;2023-07-31T08:13:40;23.80;99.90
16485;DHT22;8353;47.856;12.344;2023-07-31T08:16:11;23.90;99.90
16485;DHT22;8353;47.856;12.344;2023-07-31T08:18:42;24.10;99.90
16485;DHT22;8353;47.856;12.344;2023-07-31T08:21:13;24.30;99.90
16485;DHT22;8353;47.856;12.344;2023-07-31T08:23:43;24.40;99.90
16485;DHT22;8353;47.856;12.344;2023-07-31T08:26:17;24.40;99.90
16485;DHT22;8353;47.856;12.344;2023-07-31T08:28:48;24.40;99.90
16485;DHT22;8353;47.856;12.344;2023-07-31T08:31:20;24.40;99.90
16485;DHT22;8353;47.856;12.344;2023-07-31T08:33:50;24.40;99.90
16485;DHT22;8353;47.856;12.344;2023-07-31T08:36:21;24.30;99.90
16485;DHT22;8353;47.856;12.344;2023-07-31T08:38:51;24.30;99.90
16485;DHT22;8353;47.856;12.344;2023-07-31T08:41:21;24.30;99.90
16485;DHT22;8353;47.856;12.344;2023-07-31T08:43:53;24.50;99.90
16485;DHT22;8353;47.856;12.344;2023-07-31T08:46:26;24.60;99.90
16485;DHT22;8353;47.856;12.344;2023-07-31T08:48:59;24.70;99.90
16485;DHT22;8353;47.856;12.344;2023-07-31T08:51:31;24.70;99.90
16485;DHT22;8353;47.856;12.344;2023-07-31T08:54:02;24.70;99.90
16485;DHT22;8353;47.856;12.344;2023-07-31T08:56:34;24.90;99.90
16485;DHT22;8353;47.856;12.344;2023-07-31T08:59:06;25.00;99.90
16485;DHT22;8353;47.856;12.344;2023-07-31T09:01:43;25.10;99.90
16485;DHT22;8353;47.856;12.344;2023-07-31T09:04:14;25.00;99.90
16485;DHT22;8353;47.856;12.344;2023-07-31T09:06:46;24.90;99.90
16485;DHT22;8353;47.856;12.344;2023-07-31T09:09:19;25.00;99.90
16485;DHT22;8353;47.856;12.344;2023-07-31T09:11:50;25.10;99.90
16485;DHT22;8353;47.856;12.344;2023-07-31T09:14:21;25.40;99.90
16485;DHT22;8353;47.856;12.344;2023-07-31T09:16:54;25.50;99.90
16485;DHT22;8353;47.856;12.344;2023-07-31T09:19:27;25.60;99.90
16485;DHT22;8353;47.856;12.344;2023-07-31T09:21:58;25.80;99.90
16485;DHT22;8353;47.856;12.344;2023-07-31T09:24:30;26.20;99.90
16485;DHT22;8353;47.856;12.344;2023-07-31T09:27:01;26.20;99.90
16485;DHT22;8353;47.856;12.344;2023-07-31T09:29:32;26.40;99.90
16485;DHT22;8353;47.856;12.344;2023-07-31T09:32:04;26.50;99.90
16485;DHT22;8353;47.856;12.344;2023-07-31T09:34:38;26.60;99.90
16485;DHT22;8353;47.856;12.344;2023-07-31T09:37:08;26.10;99.90
16485;DHT22;8353;47.856;12.344;2023-07-31T09:40:00;25.70;99.90
16485;DHT22;8353;47.856;12.344;2023-07-31T09:42:31;25.80;99.90
16485;DHT22;8353;47.856;12.344;2023-07-31T09:45:08;26.00;99.90
16485;DHT22;8353;47.856;12.344;2023-07-31T09:47:46;26.00;99.90
16485;DHT22;8353;47.856;12.344;2023-07-31T09:50:19;26.20;99.90
16485;DHT22;8353;47.856;12.344;2023-07-31T09:52:50;26.30;99.90
16485;DHT22;8353;47.856;12.344;2023-07-31T09:55:24;26.20;99.90
16485;DHT22;8353;47.856;12.344;2023-07-31T09:57:55;26.10;99.90
16485;DHT22;8353;47.856;12.344;2023-07-31T10:00:28;26.10;99.90
16485;DHT22;8353;47.856;12.344;2023-07-31T10:03:09;26.10;99.90
16485;DHT22;8353;47.856;12.344;2023-07-31T10:05:42;26.10;99.90
16485;DHT22;8353;47.856;12.344;2023-07-31T10:08:14;26.00;99.90
16485;DHT22;8353;47.856;12.344;2023-07-31T10:10:46;26.30;99.90
16485;DHT22;8353;47.856;12.344;2023-07-31T10:13:16;26.30;99.90
16485;DHT22;8353;47.856;12.344;2023-07-31T10:15:47;26.00;99.90
16485;DHT22;8353;47.856;12.344;2023-07-31T10:18:20;26.10;99.90
16485;DHT22;8353;47.856;12.344;2023-07-31T10:20:51;26.20;99.90
16485;DHT22;8353;47.856;12.344;2023-07-31T10:23:23;26.20;99.90
16485;DHT22;8353;47.856;12.344;2023-07-31T10:25:54;26.40;99.90
16485;DHT22;8353;47.856;12.344;2023-07-31T10:28:26;26.60;99.90
16485;DHT22;8353;47.856;12.344;2023-07-31T10:30:57;26.70;99.90
16485;DHT22;8353;47.856;12.344;2023-07-31T10:33:30;26.90;99.90
16485;DHT22;8353;47.856;12.344;2023-07-31T10:36:14;26.90;99.90
16485;DHT22;8353;47.856;12.344;2023-07-31T10:38:48;26.80;99.90
16485;DHT22;8353;47.856;12.344;2023-07-31T10:41:19;26.80;99.90
16485;DHT22;8353;47.856;12.344;2023-07-31T10:43:54;26.90;99.90
16485;DHT22;8353;47.856;12.344;2023-07-31T10:46:28;26.90;99.90
16485;DHT22;8353;47.856;12.344;2023-07-31T10:49:02;27.10;99.90
16485;DHT22;8353;47.856;12.344;2023-07-31T10:51:33;27.40;99.90
16485;DHT22;8353;47.856;12.344;2023-07-31T10:54:12;27.30;99.90
16485;DHT22;8353;47.856;12.344;2023-07-31T10:56:45;27.30;99.90
16485;DHT22;8353;47.856;12.344;2023-07-31T10:59:16;27.40;99.90
16485;DHT22;8353;47.856;12.344;2023-07-31T11:01:53;27.60;99.90
16485;DHT22;8353;47.856;12.344;2023-07-31T11:04:29;27.80;99.90
16485;DHT22;8353;47.856;12.344;2023-07-31T11:07:02;27.90;99.90
16485;DHT22;8353;47.856;12.344;2023-07-31T11:09:35;28.00;99.90
16485;DHT22;8353;47.856;12.344;2023-07-31T11:12:06;27.90;99.90
16485;DHT22;8353;47.856;12.344;2023-07-31T11:14:37;27.60;99.90
16485;DHT22;8353;47.856;12.344;2023-07-31T11:17:10;27.30;99.90
16485;DHT22;8353;47.856;12.344;2023-07-31T11:19:42;27.40;99.90
16485;DHT22;8353;47.856;12.344;2023-07-31T11:22:12;27.30;99.90
16485;DHT22;8353;47.856;12.344;2023-07-31T11:24:43;27.10;99.90
16485;DHT22;8353;47.856;12.344;2023-07-31T11:27:14;27.00;99.90
16485;DHT22;8353;47.856;12.344;2023-07-31T11:29:44;27.30;99.90
16485;DHT22;8353;47.856;12.344;2023-07-31T11:32:16;27.40;99.90
16485;DHT22;8353;47.856;12.344;2023-07-31T11:34:54;27.50;99.90
16485;DHT22;8353;47.856;12.344;2023-07-31T11:37:38;27.60;99.90
16485;DHT22;8353;47.856;12.344;2023-07-31T11:40:10;27.80;99.90
16485;DHT22;8353;47.856;12.344;2023-07-31T11:42:41;27.80;99.90
16485;DHT22;8353;47.856;12.344;2023-07-31T11:45:12;28.00;99.90
16485;DHT22;8353;47.856;12.344;2023-07-31T11:47:43;28.00;99.90
16485;DHT22;8353;47.856;12.344;2023-07-31T11:50:18;28.30;99.90
16485;DHT22;8353;47.856;12.344;2023-07-31T11:52:53;28.30;99.90
16485;DHT22;8353;47.856;12.344;2023-07-31T11:55:26;28.20;99.90
16485;DHT22;8353;47.856;12.344;2023-07-31T11:57:57;28.40;99.90
16485;DHT22;8353;47.856;12.344;2023-07-31T12:00:30;28.80;99.90
16485;DHT22;8353;47.856;12.344;2023-07-31T12:03:01;28.70;99.90
16485;DHT22;8353;47.856;12.344;2023-07-31T12:05:33;28.60;99.90
16485;DHT22;8353;47.856;12.344;2023-07-31T12:08:09;28.60;99.90
16485;DHT22;8353;47.856;12.344;2023-07-31T12:10:40;28.70;99.90
16485;DHT22;8353;47.856;12.344;2023-07-31T12:13:19;28.60;99.90
16485;DHT22;8353;47.856;12.344;2023-07-31T12:15:54;28.80;99.90
16485;DHT22;8353;47.856;12.344;2023-07-31T12:18:26;29.00;99.90
16485;DHT22;8353;47.856;12.344;2023-07-31T12:20:59;29.00;99.90
16485;DHT22;8353;47.856;12.344;2023-07-31T12:23:31;29.20;99.90
16485;DHT22;8353;47.856;12.344;2023-07-31T12:26:03;29.20;99.90
16485;DHT22;8353;47.856;12.344;2023-07-31T12:28:38;29.40;99.90
16485;DHT22;8353;47.856;12.344;2023-07-31T12:31:10;29.40;99.90
16485;DHT22;8353;47.856;12.344;2023-07-31T12:33:41;29.40;99.90
16485;DHT22;8353;47.856;12.344;2023-07-31T12:36:14;29.50;99.90
16485;DHT22;8353;47.856;12.344;2023-07-31T12:38:48;29.10;99.90
16485;DHT22;8353;47.856;12.344;2023-07-31T12:41:20;29.00;99.90
16485;DHT22;8353;47.856;12.344;2023-07-31T12:43:57;28.80;99.90
16485;DHT22;8353;47.856;12.344;2023-07-31T12:46:27;29.10;99.90
16485;DHT22;8353;47.856;12.344;2023-07-31T12:48:57;29.50;99.90
16485;DHT22;8353;47.856;12.344;2023-07-31T12:51:29;29.60;99.90
16485;DHT22;8353;47.856;12.344;2023-07-31T12:54:00;29.70;99.90
16485;DHT22;8353;47.856;12.344;2023-07-31T12:56:31;29.40;99.90
16485;DHT22;8353;47.856;12.344;2023-07-31T12:59:03;29.60;99.90
16485;DHT22;8353;47.856;12.344;2023-07-31T13:01:34;29.40;99.90
16485;DHT22;8353;47.856;12.344;2023-07-31T13:04:05;29.40;99.90
16485;DHT22;8353;47.856;12.344;2023-07-31T13:06:40;29.60;99.90
16485;DHT22;8353;47.856;12.344;2023-07-31T13:09:10;29.60;99.90
16485;DHT22;8353;47.856;12.344;2023-07-31T13:11:42;29.30;99.90
16485;DHT22;8353;47.856;12.344;2023-07-31T13:14:12;29.30;99.90
16485;DHT22;8353;47.856;12.344;2023-07-31T13:16:42;29.60;99.90
16485;DHT22;8353;47.856;12.344;2023-07-31T13:19:18;29.50;99.90
16485;DHT22;8353;47.856;12.344;2023-07-31T13:22:09;29.70;99.90
16485;DHT22;8353;47.856;12.344;2023-07-31T13:24:39;29.70;99.90
16485;DHT22;8353;47.856;12.344;2023-07-31T13:27:10;30.00;99.90
16485;DHT22;8353;47.856;12.344;2023-07-31T13:29:40;29.90;99.90
16485;DHT22;8353;47.856;12.344;2023-07-31T13:32:11;30.20;99.90
16485;DHT22;8353;47.856;12.344;2023-07-31T13:34:41;30.40;99.90
16485;DHT22;8353;47.856;12.344;2023-07-31T13:37:14;30.40;99.90
16485;DHT22;8353;47.856;12.344;2023-07-31T13:39:46;30.30;99.90
16485;DHT22;8353;47.856;12.344;2023-07-31T13:42:17;30.10;99.90
16485;DHT22;8353;47.856;12.344;2023-07-31T13:44:51;30.00;99.90
16485;DHT22;8353;47.856;12.344;2023-07-31T13:47:21;29.80;99.90
16485;DHT22;8353;47.856;12.344;2023-07-31T13:49:52;29.80;99.90
16485;DHT22;8353;47.856;12.344;2023-07-31T13:52:24;29.70;99.90
16485;DHT22;8353;47.856;12.344;2023-07-31T13:54:54;29.60;99.90
16485;DHT22;8353;47.856;12.344;2023-07-31T13:57:25;29.60;99.90
16485;DHT22;8353;47.856;12.344;2023-07-31T13:59:55;29.70;99.90
16485;DHT22;8353;47.856;12.344;2023-07-31T14:02:25;29.50;99.90
16485;DHT22;8353;47.856;12.344;2023-07-31T14:04:55;29.60;99.90
16485;DHT22;8353;47.856;12.344;2023-07-31T14:07:28;29.60;99.90
16485;DHT22;8353;47.856;12.344;2023-07-31T14:09:58;29.30;99.90
16485;DHT22;8353;47.856;12.344;2023-07-31T14:12:32;29.30;99.90
16485;DHT22;8353;47.856;12.344;2023-07-31T14:15:03;29.50;99.90
16485;DHT22;8353;47.856;12.344;2023-07-31T14:17:33;29.90;99.90
16485;DHT22;8353;47.856;12.344;2023-07-31T14:20:06;30.10;99.90
16485;DHT22;8353;47.856;12.344;2023-07-31T14:22:38;30.40;99.90
16485;DHT22;8353;47.856;12.344;2023-07-31T14:25:09;30.60;99.90
16485;DHT22;8353;47.856;12.344;2023-07-31T14:27:39;30.50;99.90
16485;DHT22;8353;47.856;12.344;2023-07-31T14:30:10;30.80;99.90
16485;DHT22;8353;47.856;12.344;2023-07-31T14:32:41;30.80;99.90
16485;DHT22;8353;47.856;12.344;2023-07-31T14:35:11;30.90;99.90
16485;DHT22;8353;47.856;12.344;2023-07-31T14:37:44;30.60;99.90
16485;DHT22;8353;47.856;12.344;2023-07-31T14:40:15;30.90;99.90
16485;DHT22;8353;47.856;12.344;2023-07-31T14:42:45;31.00;99.90
16485;DHT22;8353;47.856;12.344;2023-07-31T14:45:15;31.10;99.90
16485;DHT22;8353;47.856;12.344;2023-07-31T14:47:46;31.00;99.90
16485;DHT22;8353;47.856;12.344;2023-07-31T14:50:16;30.80;99.90
16485;DHT22;8353;47.856;12.344;2023-07-31T14:52:48;30.80;99.90
16485;DHT22;8353;47.856;12.344;2023-07-31T14:55:18;30.60;99.90
16485;DHT22;8353;47.856;12.344;2023-07-31T14:57:49;30.70;99.90
16485;DHT22;8353;47.856;12.344;2023-07-31T15:00:20;30.90;99.90
16485;DHT22;8353;47.856;12.344;2023-07-31T15:02:50;30.90;99.90
16485;DHT22;8353;47.856;12.344;2023-07-31T15:05:21;31.10;99.90
16485;DHT22;8353;47.856;12.344;2023-07-31T15:07:52;31.20;99.80
16485;DHT22;8353;47.856;12.344;2023-07-31T15:10:22;31.10;99.90
16485;DHT22;8353;47.856;12.344;2023-07-31T15:12:52;31.30;99.90
16485;DHT22;8353;47.856;12.344;2023-07-31T15:15:24;31.20;99.90
16485;DHT22;8353;47.856;12.344;2023-07-31T15:17:54;31.10;99.70
16485;DHT22;8353;47.856;12.344;2023-07-31T15:20:25;30.90;99.90
16485;DHT22;8353;47.856;12.344;2023-07-31T15:22:57;31.00;99.90
16485;DHT22;8353;47.856;12.344;2023-07-31T15:25:29;31.10;99.90
16485;DHT22;8353;47.856;12.344;2023-07-31T15:27:59;31.10;99.30
16485;DHT22;8353;47.856;12.344;2023-07-31T15:30:30;31.10;99.20
16485;DHT22;8353;47.856;12.344;2023-07-31T15:33:01;31.20;99.90
16485;DHT22;8353;47.856;12.344;2023-07-31T15:35:31;31.20;99.70
16485;DHT22;8353;47.856;12.344;2023-07-31T15:38:03;31.00;99.90
16485;DHT22;8353;47.856;12.344;2023-07-31T15:40:34;30.90;99.90
16485;DHT22;8353;47.856;12.344;2023-07-31T15:43:04;30.80;99.90
16485;DHT22;8353;47.856;12.344;2023-07-31T15:45:35;30.80;99.90
16485;DHT22;8353;47.856;12.344;2023-07-31T15:48:05;30.80;99.90
16485;DHT22;8353;47.856;12.344;2023-07-31T15:50:38;30.70;99.90
16485;DHT22;8353;47.856;12.344;2023-07-31T15:53:10;30.60;99.90
16485;DHT22;8353;47.856;12.344;2023-07-31T15:55:40;30.60;99.90
16485;DHT22;8353;47.856;12.344;2023-07-31T15:58:11;30.40;98.20
16485;DHT22;8353;47.856;12.344;2023-07-31T16:00:41;30.00;98.50